Hovedside
METAR-TAF:

METAR-TAF

Lufthavner :

Guernsey,

breddegrad: 49-26N, lengdegrad: 002-36W, høyde over havet: 102 m

Gjeldene værobservasjon

Denne rapporten ble laget for 18 minutter siden, klokken 13:20 UTC
Vind 3 kt fra Sør-sørøst, skiftende mellom Øst-sørøst og Sør
Temperatur 23°C
Luftfuktighet 57%
Trykk 1019 hPa
Sikt 10 km eller mer
ingen skyer under 1500 m og ingen bygeskyer

METAR: EGJB 181320Z 15003KT 110V190 CAVOK 23/14 Q1019

Tid: 14:38 (13:38 UTC)

Varsel

Denne rapporten ble laget for 2 timer og 34 minutter siden, klokken 11:04 UTC
Varsel gyldig fra 18. klokken 12 UTC til 18. klokken 21 UTC
Vind 10 kt fra Sør
Sikt 10 km eller mer
ingen skyer under 1500 m og ingen bygeskyer
Blir
fra 18. klokken 14 UTC til 18. klokken 16 UTC
Vind 3 kt fra Sør-sørøst

TAF: EGJB 181104Z 1812/1821 17010KT CAVOK BECMG 1814/1816 15003KT

Værobservasjoner og værvarsel for over 4000 flyplasser (METAR- og TAF-rapporter).

Tilgjengelige stasjoner er representert av de røde og gule prikkene på kartet.

Hold musepekeren over prikken for å se navnet på stasjonen.

Klikk så for å se værobservasjoner og -varsler.

For å forandre kartet kan du klikke på den grønne knappen med svart kryss for å zoome inn, på den grønne knappen med strek for å zoome ut, eller på de grønne pilene for å se tilstøtende kart.


METAR-TAF: